sensor_id;sensor_type;location;lat;lon;timestamp;temperature;humidity
32506;DHT22;18955;51.224;8.482;2023-02-28T00:00:17;6.10;67.60
32506;DHT22;18955;51.224;8.482;2023-02-28T00:02:43;6.00;68.30
32506;DHT22;18955;51.224;8.482;2023-02-28T00:05:12;5.90;68.70
32506;DHT22;18955;51.224;8.482;2023-02-28T00:07:39;6.10;67.70
32506;DHT22;18955;51.224;8.482;2023-02-28T00:10:06;6.00;68.10
32506;DHT22;18955;51.224;8.482;2023-02-28T00:12:34;5.90;68.80
32506;DHT22;18955;51.224;8.482;2023-02-28T00:15:01;6.10;68.00
32506;DHT22;18955;51.224;8.482;2023-02-28T00:17:28;6.00;67.90
32506;DHT22;18955;51.224;8.482;2023-02-28T00:19:54;5.80;68.50
32506;DHT22;18955;51.224;8.482;2023-02-28T00:22:21;6.00;68.10
32506;DHT22;18955;51.224;8.482;2023-02-28T00:24:47;6.00;68.00
32506;DHT22;18955;51.224;8.482;2023-02-28T00:27:14;5.80;68.50
32506;DHT22;18955;51.224;8.482;2023-02-28T00:29:40;5.90;68.60
32506;DHT22;18955;51.224;8.482;2023-02-28T00:32:06;6.00;67.70
32506;DHT22;18955;51.224;8.482;2023-02-28T00:34:33;5.90;68.10
32506;DHT22;18955;51.224;8.482;2023-02-28T00:37:08;5.80;68.70
32506;DHT22;18955;51.224;8.482;2023-02-28T00:39:36;6.00;67.80
32506;DHT22;18955;51.224;8.482;2023-02-28T00:42:03;5.90;67.90
32506;DHT22;18955;51.224;8.482;2023-02-28T00:44:30;5.70;68.40
32506;DHT22;18955;51.224;8.482;2023-02-28T00:46:56;6.00;68.00
32506;DHT22;18955;51.224;8.482;2023-02-28T00:49:25;5.90;68.30
32506;DHT22;18955;51.224;8.482;2023-02-28T00:51:51;5.70;68.70
32506;DHT22;18955;51.224;8.482;2023-02-28T00:54:19;5.90;68.40
32506;DHT22;18955;51.224;8.482;2023-02-28T00:56:47;5.90;68.10
32506;DHT22;18955;51.224;8.482;2023-02-28T00:59:14;5.70;68.60
32506;DHT22;18955;51.224;8.482;2023-02-28T01:01:41;5.80;68.50
32506;DHT22;18955;51.224;8.482;2023-02-28T01:04:08;5.90;67.60
32506;DHT22;18955;51.224;8.482;2023-02-28T01:06:35;5.80;68.00
32506;DHT22;18955;51.224;8.482;2023-02-28T01:09:03;5.70;68.50
32506;DHT22;18955;51.224;8.482;2023-02-28T01:11:30;6.00;67.50
32506;DHT22;18955;51.224;8.482;2023-02-28T01:13:56;5.90;67.70
32506;DHT22;18955;51.224;8.482;2023-02-28T01:16:23;5.70;68.30
32506;DHT22;18955;51.224;8.482;2023-02-28T01:18:50;5.90;68.00
32506;DHT22;18955;51.224;8.482;2023-02-28T01:21:18;5.90;67.80
32506;DHT22;18955;51.224;8.482;2023-02-28T01:23:46;5.70;68.40
32506;DHT22;18955;51.224;8.482;2023-02-28T01:26:22;5.80;68.20
32506;DHT22;18955;51.224;8.482;2023-02-28T01:28:50;5.90;67.50
32506;DHT22;18955;51.224;8.482;2023-02-28T01:31:18;5.80;68.00
32506;DHT22;18955;51.224;8.482;2023-02-28T01:33:44;5.80;68.50
32506;DHT22;18955;51.224;8.482;2023-02-28T01:36:13;5.90;67.50
32506;DHT22;18955;51.224;8.482;2023-02-28T01:38:40;5.80;67.90
32506;DHT22;18955;51.224;8.482;2023-02-28T01:41:07;5.70;68.40
32506;DHT22;18955;51.224;8.482;2023-02-28T01:46:13;5.80;67.70
32506;DHT22;18955;51.224;8.482;2023-02-28T01:49:11;5.70;68.40
32506;DHT22;18955;51.224;8.482;2023-02-28T01:51:54;6.00;67.70
32506;DHT22;18955;51.224;8.482;2023-02-28T01:54:24;5.80;67.70
32506;DHT22;18955;51.224;8.482;2023-02-28T01:57:06;5.60;68.30
32506;DHT22;18955;51.224;8.482;2023-02-28T01:59:37;5.90;67.80
32506;DHT22;18955;51.224;8.482;2023-02-28T02:02:06;5.80;67.80
32506;DHT22;18955;51.224;8.482;2023-02-28T02:04:39;5.60;68.30
32506;DHT22;18955;51.224;8.482;2023-02-28T02:07:07;5.80;67.90
32506;DHT22;18955;51.224;8.482;2023-02-28T02:09:34;5.90;67.70
32506;DHT22;18955;51.224;8.482;2023-02-28T02:12:15;5.60;68.20
32506;DHT22;18955;51.224;8.482;2023-02-28T02:15:17;5.80;68.20
32506;DHT22;18955;51.224;8.482;2023-02-28T02:17:52;5.90;67.70
32506;DHT22;18955;51.224;8.482;2023-02-28T02:37:24;5.60;68.50
32506;DHT22;18955;51.224;8.482;2023-02-28T02:40:20;5.80;67.70
32506;DHT22;18955;51.224;8.482;2023-02-28T02:42:55;5.80;67.70
32506;DHT22;18955;51.224;8.482;2023-02-28T02:45:33;5.60;68.30
32506;DHT22;18955;51.224;8.482;2023-02-28T02:48:07;5.80;67.60
32506;DHT22;18955;51.224;8.482;2023-02-28T02:50:41;5.70;67.80
32506;DHT22;18955;51.224;8.482;2023-02-28T02:53:09;5.60;68.20
32506;DHT22;18955;51.224;8.482;2023-02-28T02:55:40;5.90;67.50
32506;DHT22;18955;51.224;8.482;2023-02-28T02:58:11;5.80;67.60
32506;DHT22;18955;51.224;8.482;2023-02-28T03:00:43;5.60;68.20
32506;DHT22;18955;51.224;8.482;2023-02-28T03:03:12;5.70;67.70
32506;DHT22;18955;51.224;8.482;2023-02-28T03:05:46;5.90;67.30
32506;DHT22;18955;51.224;8.482;2023-02-28T03:08:13;5.60;67.80
32506;DHT22;18955;51.224;8.482;2023-02-28T03:10:45;5.70;68.00
32506;DHT22;18955;51.224;8.482;2023-02-28T03:13:33;5.90;67.00
32506;DHT22;18955;51.224;8.482;2023-02-28T03:19:01;5.70;68.20
32506;DHT22;18955;51.224;8.482;2023-02-28T03:22:13;5.80;67.20
32506;DHT22;18955;51.224;8.482;2023-02-28T03:27:21;5.70;67.80
32506;DHT22;18955;51.224;8.482;2023-02-28T03:35:30;5.70;67.70
32506;DHT22;18955;51.224;8.482;2023-02-28T03:40:43;5.60;67.90
32506;DHT22;18955;51.224;8.482;2023-02-28T03:43:14;5.70;67.80
32506;DHT22;18955;51.224;8.482;2023-02-28T03:45:44;5.90;67.00
32506;DHT22;18955;51.224;8.482;2023-02-28T03:48:42;5.60;67.70
32506;DHT22;18955;51.224;8.482;2023-02-28T03:51:12;5.70;68.00
32506;DHT22;18955;51.224;8.482;2023-02-28T03:53:45;5.80;67.20
32506;DHT22;18955;51.224;8.482;2023-02-28T03:56:19;5.60;67.70
32506;DHT22;18955;51.224;8.482;2023-02-28T03:59:02;5.60;68.00
32506;DHT22;18955;51.224;8.482;2023-02-28T04:04:00;5.60;67.50
32506;DHT22;18955;51.224;8.482;2023-02-28T04:06:26;5.50;67.90
32506;DHT22;18955;51.224;8.482;2023-02-28T04:08:53;5.80;67.00
32506;DHT22;18955;51.224;8.482;2023-02-28T04:13:49;5.50;67.70
32506;DHT22;18955;51.224;8.482;2023-02-28T04:16:16;5.70;67.30
32506;DHT22;18955;51.224;8.482;2023-02-28T04:18:42;5.70;67.20
32506;DHT22;18955;51.224;8.482;2023-02-28T04:21:11;5.50;67.90
32506;DHT22;18955;51.224;8.482;2023-02-28T04:23:38;5.70;67.50
32506;DHT22;18955;51.224;8.482;2023-02-28T04:26:04;5.80;66.70
32506;DHT22;18955;51.224;8.482;2023-02-28T04:28:32;5.60;67.20
32506;DHT22;18955;51.224;8.482;2023-02-28T04:31:01;5.50;67.70
32506;DHT22;18955;51.224;8.482;2023-02-28T04:33:28;5.80;66.70
32506;DHT22;18955;51.224;8.482;2023-02-28T04:35:58;5.70;67.10
32506;DHT22;18955;51.224;8.482;2023-02-28T04:38:24;5.50;67.70
32506;DHT22;18955;51.224;8.482;2023-02-28T04:40:50;5.70;67.20
32506;DHT22;18955;51.224;8.482;2023-02-28T04:43:16;5.70;67.10
32506;DHT22;18955;51.224;8.482;2023-02-28T04:45:42;5.50;67.60
32506;DHT22;18955;51.224;8.482;2023-02-28T04:48:08;5.80;67.30
32506;DHT22;18955;51.224;8.482;2023-02-28T04:50:35;5.80;66.70
32506;DHT22;18955;51.224;8.482;2023-02-28T04:53:01;5.60;67.30
32506;DHT22;18955;51.224;8.482;2023-02-28T04:55:27;5.50;67.50
32506;DHT22;18955;51.224;8.482;2023-02-28T04:57:53;5.80;66.40
32506;DHT22;18955;51.224;8.482;2023-02-28T05:00:20;5.70;66.70
32506;DHT22;18955;51.224;8.482;2023-02-28T05:02:46;5.50;67.30
32506;DHT22;18955;51.224;8.482;2023-02-28T05:05:12;5.70;66.90
32506;DHT22;18955;51.224;8.482;2023-02-28T05:07:44;5.70;66.70
32506;DHT22;18955;51.224;8.482;2023-02-28T05:10:11;5.50;67.40
32506;DHT22;18955;51.224;8.482;2023-02-28T05:12:37;5.60;66.90
32506;DHT22;18955;51.224;8.482;2023-02-28T05:15:05;5.80;66.60
32506;DHT22;18955;51.224;8.482;2023-02-28T05:17:31;5.50;66.90
32506;DHT22;18955;51.224;8.482;2023-02-28T05:19:58;5.50;67.20
32506;DHT22;18955;51.224;8.482;2023-02-28T05:22:24;5.80;66.20
32506;DHT22;18955;51.224;8.482;2023-02-28T05:24:50;5.60;66.30
32506;DHT22;18955;51.224;8.482;2023-02-28T05:27:17;5.40;66.90
32506;DHT22;18955;51.224;8.482;2023-02-28T05:29:43;5.70;66.60
32506;DHT22;18955;51.224;8.482;2023-02-28T05:32:11;5.60;66.50
32506;DHT22;18955;51.224;8.482;2023-02-28T05:34:38;5.40;66.90
32506;DHT22;18955;51.224;8.482;2023-02-28T05:37:06;5.60;66.70
32506;DHT22;18955;51.224;8.482;2023-02-28T05:39:32;5.70;66.00
32506;DHT22;18955;51.224;8.482;2023-02-28T05:41:59;5.50;66.70
32506;DHT22;18955;51.224;8.482;2023-02-28T05:44:25;5.40;67.00
32506;DHT22;18955;51.224;8.482;2023-02-28T05:46:51;5.70;66.10
32506;DHT22;18955;51.224;8.482;2023-02-28T05:49:18;5.50;66.50
32506;DHT22;18955;51.224;8.482;2023-02-28T05:51:44;5.40;67.00
32506;DHT22;18955;51.224;8.482;2023-02-28T05:54:10;5.60;66.20
32506;DHT22;18955;51.224;8.482;2023-02-28T05:56:36;5.60;66.10
32506;DHT22;18955;51.224;8.482;2023-02-28T05:59:06;5.40;66.80
32506;DHT22;18955;51.224;8.482;2023-02-28T06:01:37;5.50;66.40
32506;DHT22;18955;51.224;8.482;2023-02-28T06:04:07;5.60;65.90
32506;DHT22;18955;51.224;8.482;2023-02-28T06:06:33;5.40;67.20
32506;DHT22;18955;51.224;8.482;2023-02-28T06:09:00;5.40;66.80
32506;DHT22;18955;51.224;8.482;2023-02-28T06:11:27;5.60;66.00
32506;DHT22;18955;51.224;8.482;2023-02-28T06:13:54;5.40;66.20
32506;DHT22;18955;51.224;8.482;2023-02-28T06:16:22;5.30;66.80
32506;DHT22;18955;51.224;8.482;2023-02-28T06:18:49;5.60;66.00
32506;DHT22;18955;51.224;8.482;2023-02-28T06:21:15;5.50;66.00
32506;DHT22;18955;51.224;8.482;2023-02-28T06:23:41;5.30;66.70
32506;DHT22;18955;51.224;8.482;2023-02-28T06:26:08;5.50;66.40
32506;DHT22;18955;51.224;8.482;2023-02-28T06:28:34;5.50;66.00
32506;DHT22;18955;51.224;8.482;2023-02-28T06:31:08;5.30;66.60
32506;DHT22;18955;51.224;8.482;2023-02-28T06:33:36;5.40;66.50
32506;DHT22;18955;51.224;8.482;2023-02-28T06:36:04;5.60;65.70
32506;DHT22;18955;51.224;8.482;2023-02-28T06:38:31;5.40;66.30
32506;DHT22;18955;51.224;8.482;2023-02-28T06:40:59;5.30;66.70
32506;DHT22;18955;51.224;8.482;2023-02-28T06:43:28;5.60;65.70
32506;DHT22;18955;51.224;8.482;2023-02-28T06:45:57;5.50;66.10
32506;DHT22;18955;51.224;8.482;2023-02-28T06:48:23;5.30;66.60
32506;DHT22;18955;51.224;8.482;2023-02-28T06:50:50;5.60;65.90
32506;DHT22;18955;51.224;8.482;2023-02-28T06:53:16;5.50;65.90
32506;DHT22;18955;51.224;8.482;2023-02-28T06:55:42;5.30;66.60
32506;DHT22;18955;51.224;8.482;2023-02-28T06:58:09;5.40;66.20
32506;DHT22;18955;51.224;8.482;2023-02-28T07:00:45;5.60;65.40
32506;DHT22;18955;51.224;8.482;2023-02-28T07:03:12;5.30;66.10
32506;DHT22;18955;51.224;8.482;2023-02-28T07:05:40;5.30;66.40
32506;DHT22;18955;51.224;8.482;2023-02-28T07:08:06;5.50;65.50
32506;DHT22;18955;51.224;8.482;2023-02-28T07:10:33;5.40;66.00
32506;DHT22;18955;51.224;8.482;2023-02-28T07:12:59;5.30;66.50
32506;DHT22;18955;51.224;8.482;2023-02-28T07:15:26;5.60;65.90
32506;DHT22;18955;51.224;8.482;2023-02-28T07:17:52;5.40;65.90
32506;DHT22;18955;51.224;8.482;2023-02-28T07:20:19;5.20;66.40
32506;DHT22;18955;51.224;8.482;2023-02-28T07:22:45;5.40;66.10
32506;DHT22;18955;51.224;8.482;2023-02-28T07:25:11;5.40;65.80
32506;DHT22;18955;51.224;8.482;2023-02-28T07:27:37;5.30;66.60
32506;DHT22;18955;51.224;8.482;2023-02-28T07:30:04;5.40;66.40
32506;DHT22;18955;51.224;8.482;2023-02-28T07:32:30;5.50;65.90
32506;DHT22;18955;51.224;8.482;2023-02-28T07:34:57;5.20;66.40
32506;DHT22;18955;51.224;8.482;2023-02-28T07:37:23;5.30;66.60
32506;DHT22;18955;51.224;8.482;2023-02-28T07:39:52;5.50;65.60
32506;DHT22;18955;51.224;8.482;2023-02-28T07:42:18;5.30;66.10
32506;DHT22;18955;51.224;8.482;2023-02-28T07:44:45;5.20;66.60
32506;DHT22;18955;51.224;8.482;2023-02-28T07:47:11;5.50;65.80
32506;DHT22;18955;51.224;8.482;2023-02-28T07:49:37;5.40;66.40
32506;DHT22;18955;51.224;8.482;2023-02-28T07:52:06;5.20;66.70
32506;DHT22;18955;51.224;8.482;2023-02-28T07:54:32;5.50;65.80
32506;DHT22;18955;51.224;8.482;2023-02-28T07:56:59;5.40;66.00
32506;DHT22;18955;51.224;8.482;2023-02-28T07:59:25;5.20;66.60
32506;DHT22;18955;51.224;8.482;2023-02-28T08:01:51;5.40;66.20
32506;DHT22;18955;51.224;8.482;2023-02-28T08:04:18;5.40;66.20
32506;DHT22;18955;51.224;8.482;2023-02-28T08:06:44;5.20;66.60
32506;DHT22;18955;51.224;8.482;2023-02-28T08:09:11;5.40;66.20
32506;DHT22;18955;51.224;8.482;2023-02-28T08:11:37;5.50;65.80
32506;DHT22;18955;51.224;8.482;2023-02-28T08:14:03;5.30;66.30
32506;DHT22;18955;51.224;8.482;2023-02-28T08:16:30;5.40;66.30
32506;DHT22;18955;51.224;8.482;2023-02-28T08:18:57;5.50;65.50
32506;DHT22;18955;51.224;8.482;2023-02-28T08:21:23;5.30;65.90
32506;DHT22;18955;51.224;8.482;2023-02-28T08:23:50;5.30;66.70
32506;DHT22;18955;51.224;8.482;2023-02-28T08:26:17;5.60;65.60
32506;DHT22;18955;51.224;8.482;2023-02-28T08:28:44;5.50;65.90
32506;DHT22;18955;51.224;8.482;2023-02-28T08:31:13;5.40;66.70
32506;DHT22;18955;51.224;8.482;2023-02-28T08:33:41;5.60;66.10
32506;DHT22;18955;51.224;8.482;2023-02-28T08:36:08;5.60;65.90
32506;DHT22;18955;51.224;8.482;2023-02-28T08:38:36;5.40;66.70
32506;DHT22;18955;51.224;8.482;2023-02-28T08:41:05;5.60;66.50
32506;DHT22;18955;51.224;8.482;2023-02-28T08:43:34;5.70;65.80
32506;DHT22;18955;51.224;8.482;2023-02-28T08:46:00;5.40;66.60
32506;DHT22;18955;51.224;8.482;2023-02-28T08:48:28;5.50;66.80
32506;DHT22;18955;51.224;8.482;2023-02-28T08:51:02;5.70;65.90
32506;DHT22;18955;51.224;8.482;2023-02-28T08:53:28;5.60;66.40
32506;DHT22;18955;51.224;8.482;2023-02-28T08:56:04;5.40;66.80
32506;DHT22;18955;51.224;8.482;2023-02-28T08:58:32;5.70;66.00
32506;DHT22;18955;51.224;8.482;2023-02-28T09:01:00;5.60;66.30
32506;DHT22;18955;51.224;8.482;2023-02-28T09:03:26;5.40;66.90
32506;DHT22;18955;51.224;8.482;2023-02-28T09:06:00;5.60;66.50
32506;DHT22;18955;51.224;8.482;2023-02-28T09:08:28;5.70;66.10
32506;DHT22;18955;51.224;8.482;2023-02-28T09:10:57;5.40;67.10
32506;DHT22;18955;51.224;8.482;2023-02-28T09:13:25;5.60;66.80
32506;DHT22;18955;51.224;8.482;2023-02-28T09:15:52;5.70;65.90
32506;DHT22;18955;51.224;8.482;2023-02-28T09:18:18;5.50;66.70
32506;DHT22;18955;51.224;8.482;2023-02-28T09:20:45;5.50;67.00
32506;DHT22;18955;51.224;8.482;2023-02-28T09:23:12;5.80;66.10
32506;DHT22;18955;51.224;8.482;2023-02-28T09:25:49;5.60;66.40
32506;DHT22;18955;51.224;8.482;2023-02-28T09:28:15;5.50;66.90
32506;DHT22;18955;51.224;8.482;2023-02-28T09:30:45;5.80;66.20
32506;DHT22;18955;51.224;8.482;2023-02-28T09:33:13;5.70;66.50
32506;DHT22;18955;51.224;8.482;2023-02-28T09:35:40;5.60;67.00
32506;DHT22;18955;51.224;8.482;2023-02-28T09:38:06;5.70;66.60
32506;DHT22;18955;51.224;8.482;2023-02-28T09:40:47;5.80;66.50
32506;DHT22;18955;51.224;8.482;2023-02-28T09:43:15;5.60;67.40
32506;DHT22;18955;51.224;8.482;2023-02-28T09:45:52;5.80;67.10
32506;DHT22;18955;51.224;8.482;2023-02-28T09:48:35;5.80;66.20
32506;DHT22;18955;51.224;8.482;2023-02-28T09:53:41;5.80;67.40
32506;DHT22;18955;51.224;8.482;2023-02-28T09:56:10;5.90;66.50
32506;DHT22;18955;51.224;8.482;2023-02-28T09:58:56;5.80;67.40
32506;DHT22;18955;51.224;8.482;2023-02-28T10:01:50;5.70;67.70
32506;DHT22;18955;51.224;8.482;2023-02-28T10:07:03;5.80;67.20
32506;DHT22;18955;51.224;8.482;2023-02-28T10:09:36;5.80;67.50
32506;DHT22;18955;51.224;8.482;2023-02-28T10:12:06;6.10;66.40
32506;DHT22;18955;51.224;8.482;2023-02-28T10:14:36;5.90;67.30
32506;DHT22;18955;51.224;8.482;2023-02-28T10:17:12;5.80;67.80
32506;DHT22;18955;51.224;8.482;2023-02-28T10:19:42;6.10;67.00
32506;DHT22;18955;51.224;8.482;2023-02-28T10:22:19;6.10;67.10
32506;DHT22;18955;51.224;8.482;2023-02-28T10:24:52;5.90;67.90
32506;DHT22;18955;51.224;8.482;2023-02-28T10:29:50;6.20;66.90
32506;DHT22;18955;51.224;8.482;2023-02-28T10:32:18;6.00;67.90
32506;DHT22;18955;51.224;8.482;2023-02-28T10:35:36;6.00;68.50
32506;DHT22;18955;51.224;8.482;2023-02-28T10:37:42;6.20;67.10
32506;DHT22;18955;51.224;8.482;2023-02-28T10:43:03;6.20;68.30
32506;DHT22;18955;51.224;8.482;2023-02-28T10:45:32;6.30;67.10
32506;DHT22;18955;51.224;8.482;2023-02-28T10:48:39;6.20;67.80
32506;DHT22;18955;51.224;8.482;2023-02-28T10:50:57;6.10;68.00
32506;DHT22;18955;51.224;8.482;2023-02-28T10:53:28;6.50;66.80
32506;DHT22;18955;51.224;8.482;2023-02-28T11:03:43;6.60;66.70
32506;DHT22;18955;51.224;8.482;2023-02-28T11:06:41;6.40;67.90
32506;DHT22;18955;51.224;8.482;2023-02-28T11:12:07;6.70;67.20
32506;DHT22;18955;51.224;8.482;2023-02-28T11:14:49;6.50;68.00
32506;DHT22;18955;51.224;8.482;2023-02-28T11:17:24;6.60;68.20
32506;DHT22;18955;51.224;8.482;2023-02-28T11:19:53;6.70;67.10
32506;DHT22;18955;51.224;8.482;2023-02-28T11:22:26;6.70;67.90
32506;DHT22;18955;51.224;8.482;2023-02-28T11:24:57;6.50;68.10
32506;DHT22;18955;51.224;8.482;2023-02-28T11:29:58;6.80;67.30
32506;DHT22;18955;51.224;8.482;2023-02-28T11:32:27;6.60;68.60
32506;DHT22;18955;51.224;8.482;2023-02-28T11:37:37;6.90;67.50
32506;DHT22;18955;51.224;8.482;2023-02-28T11:40:29;6.80;68.30
32506;DHT22;18955;51.224;8.482;2023-02-28T11:45:54;7.10;67.40
32506;DHT22;18955;51.224;8.482;2023-02-28T11:49:10;6.90;68.40
32506;DHT22;18955;51.224;8.482;2023-02-28T11:51:28;6.70;68.50
32506;DHT22;18955;51.224;8.482;2023-02-28T11:56:54;7.00;68.00
32506;DHT22;18955;51.224;8.482;2023-02-28T12:07:25;6.80;68.60
32506;DHT22;18955;51.224;8.482;2023-02-28T12:20:39;7.20;67.60
32506;DHT22;18955;51.224;8.482;2023-02-28T12:28:40;7.20;68.20
32506;DHT22;18955;51.224;8.482;2023-02-28T12:31:21;7.20;67.80
32506;DHT22;18955;51.224;8.482;2023-02-28T12:34:13;7.00;68.80
32506;DHT22;18955;51.224;8.482;2023-02-28T12:36:41;7.10;68.70
32506;DHT22;18955;51.224;8.482;2023-02-28T12:39:15;7.30;67.60
32506;DHT22;18955;51.224;8.482;2023-02-28T12:41:46;7.20;68.30
32506;DHT22;18955;51.224;8.482;2023-02-28T12:44:19;7.00;68.70
32506;DHT22;18955;51.224;8.482;2023-02-28T12:46:50;7.30;68.10
32506;DHT22;18955;51.224;8.482;2023-02-28T12:49:49;7.50;68.20
32506;DHT22;18955;51.224;8.482;2023-02-28T12:52:23;7.10;68.90
32506;DHT22;18955;51.224;8.482;2023-02-28T12:55:05;7.30;68.70
32506;DHT22;18955;51.224;8.482;2023-02-28T12:57:45;7.50;68.00
32506;DHT22;18955;51.224;8.482;2023-02-28T13:00:19;7.40;68.40
32506;DHT22;18955;51.224;8.482;2023-02-28T13:11:33;7.40;69.50
32506;DHT22;18955;51.224;8.482;2023-02-28T13:14:16;7.70;68.30
32506;DHT22;18955;51.224;8.482;2023-02-28T13:17:12;7.80;68.00
32506;DHT22;18955;51.224;8.482;2023-02-28T13:19:46;7.60;69.00
32506;DHT22;18955;51.224;8.482;2023-02-28T13:28:13;7.90;68.60
32506;DHT22;18955;51.224;8.482;2023-02-28T13:31:03;7.80;68.90
32506;DHT22;18955;51.224;8.482;2023-02-28T13:33:49;8.20;68.10
32506;DHT22;18955;51.224;8.482;2023-02-28T13:36:27;8.20;68.10
32506;DHT22;18955;51.224;8.482;2023-02-28T13:38:59;8.00;68.50
32506;DHT22;18955;51.224;8.482;2023-02-28T13:41:46;8.20;68.60
32506;DHT22;18955;51.224;8.482;2023-02-28T14:05:22;8.50;68.20
32506;DHT22;18955;51.224;8.482;2023-02-28T14:08:03;8.40;68.70
32506;DHT22;18955;51.224;8.482;2023-02-28T14:10:34;8.50;68.80
32506;DHT22;18955;51.224;8.482;2023-02-28T14:18:37;8.50;68.60
32506;DHT22;18955;51.224;8.482;2023-02-28T14:37:38;8.70;68.80
32506;DHT22;18955;51.224;8.482;2023-02-28T14:40:21;8.50;69.30
32506;DHT22;18955;51.224;8.482;2023-02-28T14:42:59;8.70;68.90
32506;DHT22;18955;51.224;8.482;2023-02-28T14:45:29;8.70;69.30
32506;DHT22;18955;51.224;8.482;2023-02-28T14:47:57;8.50;69.70
32506;DHT22;18955;51.224;8.482;2023-02-28T14:50:31;8.40;69.70
32506;DHT22;18955;51.224;8.482;2023-02-28T14:52:57;8.70;69.10
32506;DHT22;18955;51.224;8.482;2023-02-28T14:55:30;8.60;69.40
32506;DHT22;18955;51.224;8.482;2023-02-28T14:58:06;8.50;70.10
32506;DHT22;18955;51.224;8.482;2023-02-28T15:00:50;8.30;70.20
32506;DHT22;18955;51.224;8.482;2023-02-28T15:06:18;8.60;69.70
32506;DHT22;18955;51.224;8.482;2023-02-28T15:08:45;8.40;70.60
32506;DHT22;18955;51.224;8.482;2023-02-28T15:11:19;8.30;70.60
32506;DHT22;18955;51.224;8.482;2023-02-28T15:13:50;8.60;69.60
32506;DHT22;18955;51.224;8.482;2023-02-28T15:16:21;8.60;69.60
32506;DHT22;18955;51.224;8.482;2023-02-28T15:19:00;8.40;70.60
32506;DHT22;18955;51.224;8.482;2023-02-28T15:21:32;8.30;70.60
32506;DHT22;18955;51.224;8.482;2023-02-28T15:24:06;8.60;69.50
32506;DHT22;18955;51.224;8.482;2023-02-28T15:26:42;8.50;70.10
32506;DHT22;18955;51.224;8.482;2023-02-28T15:29:19;8.40;71.00
32506;DHT22;18955;51.224;8.482;2023-02-28T15:31:50;8.30;70.60
32506;DHT22;18955;51.224;8.482;2023-02-28T15:37:00;8.50;70.20
32506;DHT22;18955;51.224;8.482;2023-02-28T15:39:28;8.40;70.90
32506;DHT22;18955;51.224;8.482;2023-02-28T15:42:20;8.30;70.60
32506;DHT22;18955;51.224;8.482;2023-02-28T15:44:47;8.60;70.00
32506;DHT22;18955;51.224;8.482;2023-02-28T15:47:22;8.50;70.20
32506;DHT22;18955;51.224;8.482;2023-02-28T15:54:52;8.50;69.50
32506;DHT22;18955;51.224;8.482;2023-02-28T15:57:22;8.50;70.10
32506;DHT22;18955;51.224;8.482;2023-02-28T15:59:59;8.30;70.80
32506;DHT22;18955;51.224;8.482;2023-02-28T16:02:35;8.20;70.40
32506;DHT22;18955;51.224;8.482;2023-02-28T16:07:37;8.40;70.00
32506;DHT22;18955;51.224;8.482;2023-02-28T16:10:06;8.30;70.70
32506;DHT22;18955;51.224;8.482;2023-02-28T16:12:34;8.20;70.60
32506;DHT22;18955;51.224;8.482;2023-02-28T16:15:07;8.50;69.80
32506;DHT22;18955;51.224;8.482;2023-02-28T16:17:38;8.50;70.10
32506;DHT22;18955;51.224;8.482;2023-02-28T16:20:26;8.30;70.50
32506;DHT22;18955;51.224;8.482;2023-02-28T16:22:53;8.10;71.00
32506;DHT22;18955;51.224;8.482;2023-02-28T16:25:25;8.40;69.70
32506;DHT22;18955;51.224;8.482;2023-02-28T16:27:54;8.40;69.90
32506;DHT22;18955;51.224;8.482;2023-02-28T16:30:25;8.30;70.70
32506;DHT22;18955;51.224;8.482;2023-02-28T16:32:54;8.10;71.00
32506;DHT22;18955;51.224;8.482;2023-02-28T16:35:21;8.30;70.10
32506;DHT22;18955;51.224;8.482;2023-02-28T16:37:48;8.40;69.70
32506;DHT22;18955;51.224;8.482;2023-02-28T16:40:18;8.20;70.20
32506;DHT22;18955;51.224;8.482;2023-02-28T16:42:51;8.00;71.00
32506;DHT22;18955;51.224;8.482;2023-02-28T16:45:22;8.20;70.20
32506;DHT22;18955;51.224;8.482;2023-02-28T16:47:49;8.40;69.30
32506;DHT22;18955;51.224;8.482;2023-02-28T16:50:16;8.20;70.00
32506;DHT22;18955;51.224;8.482;2023-02-28T16:52:43;8.00;70.80
32506;DHT22;18955;51.224;8.482;2023-02-28T16:55:10;8.00;70.50
32506;DHT22;18955;51.224;8.482;2023-02-28T16:57:36;8.30;69.40
32506;DHT22;18955;51.224;8.482;2023-02-28T17:00:04;8.20;69.90
32506;DHT22;18955;51.224;8.482;2023-02-28T17:02:30;8.00;70.50
32506;DHT22;18955;51.224;8.482;2023-02-28T17:04:57;7.90;70.40
32506;DHT22;18955;51.224;8.482;2023-02-28T17:07:24;8.20;69.40
32506;DHT22;18955;51.224;8.482;2023-02-28T17:09:51;8.10;69.50
32506;DHT22;18955;51.224;8.482;2023-02-28T17:12:17;8.00;70.30
32506;DHT22;18955;51.224;8.482;2023-02-28T17:14:44;7.80;70.00
32506;DHT22;18955;51.224;8.482;2023-02-28T17:17:20;8.20;69.20
32506;DHT22;18955;51.224;8.482;2023-02-28T17:19:47;8.10;69.40
32506;DHT22;18955;51.224;8.482;2023-02-28T17:22:13;7.90;70.00
32506;DHT22;18955;51.224;8.482;2023-02-28T17:24:40;7.80;70.00
32506;DHT22;18955;51.224;8.482;2023-02-28T17:27:08;8.10;69.20
32506;DHT22;18955;51.224;8.482;2023-02-28T17:29:35;8.10;69.10
32506;DHT22;18955;51.224;8.482;2023-02-28T17:32:03;7.90;69.50
32506;DHT22;18955;51.224;8.482;2023-02-28T17:34:30;7.70;70.10
32506;DHT22;18955;51.224;8.482;2023-02-28T17:36:57;8.00;69.20
32506;DHT22;18955;51.224;8.482;2023-02-28T17:39:24;8.00;68.70
32506;DHT22;18955;51.224;8.482;2023-02-28T17:41:51;7.90;69.00
32506;DHT22;18955;51.224;8.482;2023-02-28T17:44:20;7.70;70.10
32506;DHT22;18955;51.224;8.482;2023-02-28T17:46:47;7.80;69.30
32506;DHT22;18955;51.224;8.482;2023-02-28T17:49:16;8.00;68.40
32506;DHT22;18955;51.224;8.482;2023-02-28T17:51:43;7.90;68.90
32506;DHT22;18955;51.224;8.482;2023-02-28T17:54:09;7.70;69.50
32506;DHT22;18955;51.224;8.482;2023-02-28T17:56:36;7.70;69.30
32506;DHT22;18955;51.224;8.482;2023-02-28T17:59:03;8.00;68.20
32506;DHT22;18955;51.224;8.482;2023-02-28T18:01:30;7.90;68.40
32506;DHT22;18955;51.224;8.482;2023-02-28T18:03:57;7.70;69.30
32506;DHT22;18955;51.224;8.482;2023-02-28T18:06:27;7.60;69.30
32506;DHT22;18955;51.224;8.482;2023-02-28T18:08:55;7.90;68.00
32506;DHT22;18955;51.224;8.482;2023-02-28T18:11:22;7.80;68.50
32506;DHT22;18955;51.224;8.482;2023-02-28T18:13:51;7.60;69.40
32506;DHT22;18955;51.224;8.482;2023-02-28T18:16:20;7.50;69.00
32506;DHT22;18955;51.224;8.482;2023-02-28T18:18:50;7.80;67.90
32506;DHT22;18955;51.224;8.482;2023-02-28T18:21:17;7.70;68.10
32506;DHT22;18955;51.224;8.482;2023-02-28T18:23:44;7.50;69.00
32506;DHT22;18955;51.224;8.482;2023-02-28T18:26:15;7.50;68.80
32506;DHT22;18955;51.224;8.482;2023-02-28T18:28:43;7.70;67.80
32506;DHT22;18955;51.224;8.482;2023-02-28T18:31:11;7.70;68.20
32506;DHT22;18955;51.224;8.482;2023-02-28T18:33:38;7.50;69.00
32506;DHT22;18955;51.224;8.482;2023-02-28T18:36:05;7.40;68.80
32506;DHT22;18955;51.224;8.482;2023-02-28T18:38:32;7.70;67.80
32506;DHT22;18955;51.224;8.482;2023-02-28T18:41:01;7.60;68.10
32506;DHT22;18955;51.224;8.482;2023-02-28T18:43:30;7.40;68.50
32506;DHT22;18955;51.224;8.482;2023-02-28T18:46:03;7.30;68.50
32506;DHT22;18955;51.224;8.482;2023-02-28T18:48:31;7.60;67.60
32506;DHT22;18955;51.224;8.482;2023-02-28T18:50:57;7.50;67.70